Time;durP1;ratioP1;P1;durP2;ratioP2;P2;SDS_P1;SDS_P2;PMS_P1;PMS_P2;Temp;Humidity;BMP_temperature;BMP_pressure;BME280_temperature;BME280_humidity;BME280_pressure;Samples;Min_cycle;Max_cycle;Signal;HPM_P1;HPM_P2
2023/03/22 00:00:48;;;;;;;7.18;6.57;;;;;;;10.71;69.85;94576.13;4980888;28;20200;-64
2023/03/22 00:03:13;;;;;;;7.38;6.78;;;;;;;10.87;69.40;94575.31;4970628;28;20204;-63
2023/03/22 00:05:39;;;;;;;8.13;7.47;;;;;;;11.20;69.13;94576.16;4990772;28;20221;-64
2023/03/22 00:08:06;;;;;;;7.30;6.68;;;;;;;11.41;69.04;94577.41;4962498;28;20232;-64
2023/03/22 00:10:32;;;;;;;7.30;6.70;;;;;;;11.04;69.19;94576.97;4974980;28;20242;-63
2023/03/22 00:12:59;;;;;;;7.65;6.93;;;;;;;11.19;69.08;94579.75;4971187;28;20207;-66
2023/03/22 00:15:25;;;;;;;8.20;6.57;;;;;;;11.13;69.60;94576.97;4964147;28;20555;-67
2023/03/22 00:17:50;;;;;;;6.88;6.28;;;;;;;11.19;69.17;94573.69;4969654;28;20275;-67
2023/03/22 00:20:16;;;;;;;7.72;7.07;;;;;;;11.16;68.90;94574.81;4971754;28;20228;-66
2023/03/22 00:22:42;;;;;;;7.03;6.43;;;;;;;11.33;68.61;94577.44;4969267;28;20228;-67
2023/03/22 00:25:08;;;;;;;7.78;7.07;;;;;;;11.34;68.75;94572.00;4968306;28;20216;-68
2023/03/22 00:27:34;;;;;;;7.32;6.63;;;;;;;10.96;69.91;94561.22;4960823;28;20231;-67
2023/03/22 00:30:00;;;;;;;8.13;7.43;;;;;;;11.07;69.74;94564.50;4968658;28;20224;-68
2023/03/22 00:32:25;;;;;;;7.95;7.35;;;;;;;10.87;69.94;94575.31;4969602;28;20232;-69
2023/03/22 00:34:51;;;;;;;8.40;7.60;;;;;;;10.60;71.45;94579.91;4966080;28;20228;-68
2023/03/22 00:37:16;;;;;;;8.00;7.35;;;;;;;10.62;71.88;94561.34;4993005;28;20550;-69
2023/03/22 00:39:42;;;;;;;7.47;6.73;;;;;;;10.53;71.85;94567.56;4993578;28;20247;-69
2023/03/22 00:42:08;;;;;;;8.07;7.35;;;;;;;10.52;71.39;94561.50;4967720;28;20199;-69
2023/03/22 00:44:33;;;;;;;7.85;7.15;;;;;;;10.59;71.38;94561.69;4968215;28;20215;-69
2023/03/22 00:46:59;;;;;;;7.70;7.10;;;;;;;10.84;70.52;94559.88;4965328;28;20228;-68
2023/03/22 00:49:26;;;;;;;7.40;6.80;;;;;;;10.91;70.57;94563.50;4967308;28;20240;-65
2023/03/22 00:51:51;;;;;;;7.70;7.00;;;;;;;10.92;70.02;94562.50;4969647;28;20219;-65
2023/03/22 00:54:18;;;;;;;7.60;7.00;;;;;;;11.11;69.42;94561.34;4957099;28;20685;-70
2023/03/22 00:56:50;;;;;;;7.18;6.68;;;;;;;11.02;69.59;94557.09;4960383;28;20235;-68
2023/03/22 00:59:16;;;;;;;7.75;7.05;;;;;;;10.91;69.89;94560.88;4963173;28;20570;-67
2023/03/22 01:01:42;;;;;;;8.20;7.53;;;;;;;10.81;70.44;94557.59;4960568;28;20308;-69
2023/03/22 01:04:08;;;;;;;7.13;6.53;;;;;;;11.01;69.45;94553.63;4964574;28;20693;-70
2023/03/22 01:06:33;;;;;;;6.60;6.10;;;;;;;10.65;70.76;94554.94;4965654;28;20196;-65
2023/03/22 01:08:59;;;;;;;6.18;5.68;;;;;;;10.90;69.80;94553.13;4991949;28;20251;-68
2023/03/22 01:11:25;;;;;;;6.63;5.93;;;;;;;10.69;69.81;94546.59;4992977;28;20230;-67
2023/03/22 01:13:51;;;;;;;7.43;6.67;;;;;;;10.89;69.73;94547.06;4992847;28;20217;-68
2023/03/22 01:16:17;;;;;;;6.53;6.03;;;;;;;10.96;69.64;94542.78;4968659;28;20227;-68
2023/03/22 01:18:43;;;;;;;7.47;6.78;;;;;;;11.07;69.40;94551.34;4960074;28;20193;-68
2023/03/22 01:21:09;;;;;;;6.93;6.43;;;;;;;10.69;70.82;94541.31;4995003;28;20188;-68
2023/03/22 01:23:35;;;;;;;7.03;6.47;;;;;;;10.80;70.68;94543.63;4966766;28;20307;-68
2023/03/22 01:26:01;;;;;;;6.40;5.90;;;;;;;10.94;70.12;94534.22;4967731;28;20283;-69
2023/03/22 01:28:27;;;;;;;6.03;5.53;;;;;;;11.05;69.54;94540.97;4973986;28;20260;-69
2023/03/22 01:30:53;;;;;;;6.57;6.05;;;;;;;10.94;69.64;94534.22;4958757;28;20469;-70
2023/03/22 01:33:19;;;;;;;6.90;6.30;;;;;;;10.95;70.04;94538.50;4960066;28;20276;-68
2023/03/22 01:35:44;;;;;;;7.23;6.53;;;;;;;10.99;69.86;94533.75;4967104;28;20236;-69
2023/03/22 01:38:10;;;;;;;7.10;6.50;;;;;;;10.86;70.06;94531.63;4991818;28;20224;-69
2023/03/22 01:40:35;;;;;;;6.22;5.72;;;;;;;10.81;70.65;94529.47;4960021;28;20223;-69
2023/03/22 01:43:01;;;;;;;6.03;5.53;;;;;;;10.80;70.32;94538.34;4966344;28;20217;-69
2023/03/22 01:45:39;;;;;;;6.10;5.60;;;;;;;10.57;70.65;94527.66;4969200;28;20200;-69
2023/03/22 01:48:14;;;;;;;6.03;5.53;;;;;;;10.61;70.90;94528.16;4975649;28;20249;-70
2023/03/22 01:50:43;;;;;;;7.50;6.90;;;;;;;10.16;72.05;94532.03;4969474;28;20231;-70
2023/03/22 01:53:12;;;;;;;7.13;6.53;;;;;;;10.47;71.69;94532.25;4968932;28;20223;-64
2023/03/22 01:55:38;;;;;;;6.90;6.20;;;;;;;10.36;71.53;94522.06;4967622;28;20639;-65
2023/03/22 01:58:03;;;;;;;7.37;6.77;;;;;;;10.29;72.22;94523.69;4961424;28;20234;-68
2023/03/22 02:00:29;;;;;;;6.70;6.20;;;;;;;10.31;72.02;94525.16;4959438;28;20652;-68
2023/03/22 02:02:55;;;;;;;6.73;6.17;;;;;;;10.48;71.50;94526.03;4970351;28;20224;-68
2023/03/22 02:05:21;;;;;;;6.37;5.80;;;;;;;10.62;70.67;94529.81;4968903;28;20259;-68
2023/03/22 02:07:47;;;;;;;6.10;5.60;;;;;;;10.59;70.23;94524.88;4965398;28;20248;-65
2023/03/22 02:10:16;;;;;;;6.50;5.90;;;;;;;10.41;71.04;94525.03;4963190;28;20279;-67
2023/03/22 02:13:07;;;;;;;6.07;5.57;;;;;;;10.44;71.04;94527.31;4965432;28;20220;-68
2023/03/22 02:15:38;;;;;;;6.47;5.97;;;;;;;10.37;71.31;94518.44;4964977;28;20227;-65
2023/03/22 02:18:31;;;;;;;6.83;6.23;;;;;;;10.47;71.23;94526.16;4973925;28;20240;-65
2023/03/22 02:21:05;;;;;;;7.07;6.40;;;;;;;10.59;71.16;94524.88;4961766;28;20229;-65
2023/03/22 02:23:55;;;;;;;8.20;7.50;;;;;;;10.67;70.40;94524.06;4989208;28;20228;-65
2023/03/22 02:26:45;;;;;;;9.83;8.93;;;;;;;10.72;70.69;94534.88;4973081;28;20652;-64
2023/03/22 02:29:21;;;;;;;8.07;7.47;;;;;;;10.69;70.70;94538.69;4962374;28;20308;-70
2023/03/22 02:32:06;;;;;;;8.40;7.60;;;;;;;10.71;70.34;94541.13;4980034;28;20233;-64
2023/03/22 02:34:50;;;;;;;7.03;6.53;;;;;;;10.62;70.95;94539.50;4965824;28;20232;-63
2023/03/22 02:37:32;;;;;;;6.63;6.13;;;;;;;10.64;70.59;94541.00;4963988;28;20451;-64
2023/03/22 02:40:25;;;;;;;7.22;6.63;;;;;;;10.42;71.73;94549.50;4979234;28;20647;-67
2023/03/22 02:43:22;;;;;;;7.70;7.10;;;;;;;10.05;72.57;94542.81;5000912;28;20196;-67
2023/03/22 02:46:19;;;;;;;6.80;6.30;;;;;;;10.07;71.91;94549.53;4977035;28;20263;-68
2023/03/22 02:49:05;;;;;;;6.65;6.05;;;;;;;10.12;71.92;94555.16;4992466;28;20208;-68
2023/03/22 02:51:44;;;;;;;6.33;5.83;;;;;;;10.26;71.42;94558.13;5000081;28;20360;-67
2023/03/22 02:54:17;;;;;;;5.97;5.47;;;;;;;10.28;71.48;94558.84;4992692;28;20279;-69
2023/03/22 02:56:42;;;;;;;5.45;4.95;;;;;;;10.29;70.84;94550.81;4963107;28;20241;-67
2023/03/22 02:59:11;;;;;;;6.65;5.15;;;;;;;10.47;70.17;94548.03;4989247;28;20247;-67
2023/03/22 03:01:41;;;;;;;5.53;5.03;;;;;;;10.35;70.12;94549.34;4971487;28;20239;-68
2023/03/22 03:04:12;;;;;;;5.03;4.63;;;;;;;10.36;70.84;94551.78;4960632;28;20295;-68
2023/03/22 03:06:44;;;;;;;5.03;4.53;;;;;;;10.37;70.80;94550.81;4963340;28;20356;-67
2023/03/22 03:09:16;;;;;;;5.07;4.68;;;;;;;10.33;70.65;94556.53;4968387;28;20225;-68
2023/03/22 03:11:50;;;;;;;5.07;4.63;;;;;;;10.38;70.88;94555.06;4966624;28;20227;-68
2023/03/22 03:14:23;;;;;;;4.53;4.13;;;;;;;10.22;70.82;94552.38;4971686;28;20229;-68
2023/03/22 03:17:05;;;;;;;4.57;4.27;;;;;;;10.28;71.03;94564.09;4977365;28;20231;-67
2023/03/22 03:19:45;;;;;;;4.90;4.50;;;;;;;10.41;70.22;94559.19;4994769;28;20220;-66
2023/03/22 03:22:23;;;;;;;5.00;4.60;;;;;;;10.08;71.08;94559.09;4970761;28;20224;-66
2023/03/22 03:25:17;;;;;;;4.70;4.30;;;;;;;10.05;71.28;94559.41;4995043;28;20193;-66
2023/03/22 03:28:14;;;;;;;4.57;4.23;;;;;;;10.12;70.73;94559.59;4971818;28;20200;-66
2023/03/22 03:30:48;;;;;;;3.87;3.53;;;;;;;10.25;70.09;94562.56;4969491;28;20232;-67
2023/03/22 03:33:18;;;;;;;3.45;3.15;;;;;;;10.36;69.10;94566.72;4971215;28;20231;-67
2023/03/22 03:35:52;;;;;;;3.90;3.60;;;;;;;10.45;69.18;94554.41;4981906;28;20320;-66
2023/03/22 03:38:23;;;;;;;3.90;3.60;;;;;;;10.38;69.53;94564.78;4992395;28;20248;-66
2023/03/22 03:40:57;;;;;;;3.23;2.93;;;;;;;9.68;71.34;94567.66;4980631;28;20220;-67
2023/03/22 03:43:26;;;;;;;2.97;2.77;;;;;;;9.86;71.39;94568.38;4976772;28;20231;-68
2023/03/22 03:45:53;;;;;;;2.90;2.70;;;;;;;10.07;70.16;94572.38;4969786;28;20328;-68
2023/03/22 03:48:22;;;;;;;2.92;2.72;;;;;;;10.13;70.14;94566.47;4993238;28;20208;-69
2023/03/22 03:50:51;;;;;;;3.13;2.83;;;;;;;9.77;71.94;94569.31;4970211;28;20342;-68
2023/03/22 03:53:16;;;;;;;3.10;2.40;;;;;;;9.90;70.89;94569.69;4961606;28;20229;-68
2023/03/22 03:55:42;;;;;;;2.40;2.20;;;;;;;9.96;70.68;94568.22;4954232;28;20261;-68
2023/03/22 03:58:08;;;;;;;2.57;2.40;;;;;;;9.82;71.28;94568.84;4965608;28;20621;-68
2023/03/22 04:00:35;;;;;;;2.77;2.57;;;;;;;9.60;71.84;94572.84;4971368;28;20192;-67
2023/03/22 04:03:01;;;;;;;2.60;2.40;;;;;;;9.62;71.75;94568.25;4965631;28;20219;-67
2023/03/22 04:05:26;;;;;;;2.07;1.97;;;;;;;9.98;70.69;94575.97;4970845;28;20224;-66
2023/03/22 04:07:51;;;;;;;2.70;2.50;;;;;;;9.84;71.01;94577.41;4959493;28;20263;-67
2023/03/22 04:10:17;;;;;;;3.07;2.77;;;;;;;9.68;71.47;94575.53;4969895;28;20251;-64
2023/03/22 04:12:43;;;;;;;2.70;2.50;;;;;;;9.62;71.97;94576.13;4964281;28;20196;-64
2023/03/22 04:15:10;;;;;;;2.70;2.50;;;;;;;9.63;72.14;94575.97;4970390;28;20299;-69
2023/03/22 04:17:36;;;;;;;2.83;2.63;;;;;;;9.63;72.02;94586.47;4959348;28;20244;-69
2023/03/22 04:20:03;;;;;;;2.70;2.50;;;;;;;9.57;72.21;94579.25;4962904;28;20703;-69
2023/03/22 04:22:33;;;;;;;3.10;2.70;;;;;;;9.67;71.86;94579.09;4945047;28;20224;-68
2023/03/22 04:25:02;;;;;;;2.30;2.20;;;;;;;9.96;71.15;94583.19;4962408;28;20248;-68
2023/03/22 04:27:27;;;;;;;3.10;2.80;;;;;;;10.09;70.82;94581.75;4996855;28;20219;-65
2023/03/22 04:29:53;;;;;;;3.40;3.10;;;;;;;10.05;70.80;94584.84;4967446;28;20255;-68
2023/03/22 04:32:23;;;;;;;3.30;3.10;;;;;;;10.04;70.98;94588.44;4966367;28;20221;-68
2023/03/22 04:34:50;;;;;;;2.90;2.70;;;;;;;10.13;70.71;94593.59;4969118;28;20378;-68
2023/03/22 04:37:16;;;;;;;3.23;3.03;;;;;;;10.21;70.30;94594.56;4968876;28;20240;-66
2023/03/22 04:39:42;;;;;;;3.20;3.00;;;;;;;10.08;70.76;94595.88;4968720;28;20192;-68
2023/03/22 04:42:08;;;;;;;3.77;3.37;;;;;;;9.94;71.25;94594.66;4990601;28;20205;-65
2023/03/22 04:44:34;;;;;;;3.20;3.00;;;;;;;9.90;71.78;94592.50;4965176;28;20227;-69
2023/03/22 04:46:59;;;;;;;3.33;3.07;;;;;;;9.79;71.60;94595.44;4969187;28;20243;-67
2023/03/22 04:49:25;;;;;;;3.70;3.40;;;;;;;9.77;71.89;94594.75;4962742;28;20246;-65
2023/03/22 04:51:53;;;;;;;4.17;3.77;;;;;;;9.83;72.17;94605.44;4967259;28;20289;-68
2023/03/22 04:54:18;;;;;;;3.70;3.40;;;;;;;10.01;71.43;94599.28;4990730;28;20221;-68
2023/03/22 04:56:44;;;;;;;3.77;3.47;;;;;;;10.00;71.50;94616.03;4993267;28;20283;-68
2023/03/22 04:59:09;;;;;;;3.90;3.60;;;;;;;9.74;72.38;94608.19;4966789;28;20231;-68
2023/03/22 05:01:36;;;;;;;3.67;3.37;;;;;;;9.94;71.98;94617.47;4969729;28;20213;-68
2023/03/22 05:04:02;;;;;;;3.50;3.30;;;;;;;9.95;72.06;94613.88;4958353;28;20247;-68
2023/03/22 05:06:31;;;;;;;3.80;3.50;;;;;;;10.00;71.30;94614.22;4968173;28;20193;-68
2023/03/22 05:08:57;;;;;;;4.90;3.77;;;;;;;9.96;71.87;94618.13;4969639;28;20243;-68
2023/03/22 05:11:26;;;;;;;4.20;3.90;;;;;;;9.76;72.87;94616.75;4971057;28;20228;-68
2023/03/22 05:13:52;;;;;;;3.93;3.53;;;;;;;9.98;72.02;94621.44;4967907;28;20315;-67
2023/03/22 05:16:17;;;;;;;3.80;3.50;;;;;;;9.74;72.52;94623.94;4990288;28;20308;-67
2023/03/22 05:18:44;;;;;;;4.10;3.80;;;;;;;9.80;72.06;94618.88;4967767;28;20195;-68
2023/03/22 05:21:16;;;;;;;4.40;4.00;;;;;;;9.92;71.79;94617.63;4958309;28;20264;-68
2023/03/22 05:23:43;;;;;;;4.33;4.03;;;;;;;10.11;71.30;94621.00;4962117;28;20217;-68
2023/03/22 05:26:09;;;;;;;4.60;4.20;;;;;;;10.12;70.70;94633.13;4968623;28;20216;-67
2023/03/22 05:28:36;;;;;;;4.43;4.05;;;;;;;10.14;70.62;94626.75;4967772;28;20247;-68
2023/03/22 05:31:02;;;;;;;3.90;3.60;;;;;;;10.08;70.98;94635.28;4957857;28;20225;-68
2023/03/22 05:33:28;;;;;;;3.70;3.40;;;;;;;10.13;70.80;94634.78;4979831;28;20203;-68
2023/03/22 05:35:54;;;;;;;4.20;3.90;;;;;;;10.06;70.75;94639.03;4946706;28;20225;-70
2023/03/22 05:38:21;;;;;;;4.47;4.10;;;;;;;9.98;71.39;94639.00;4968870;28;20231;-69
2023/03/22 05:40:47;;;;;;;4.27;3.97;;;;;;;10.17;70.67;94636.13;4965087;28;20312;-70
2023/03/22 05:43:14;;;;;;;4.30;3.87;;;;;;;10.17;70.55;94636.13;4959570;28;20299;-68
2023/03/22 05:45:39;;;;;;;4.38;3.97;;;;;;;10.23;70.64;94640.72;4995228;28;20193;-68
2023/03/22 05:48:06;;;;;;;4.53;4.13;;;;;;;10.02;70.95;94641.13;4959175;28;20232;-68
2023/03/22 05:50:32;;;;;;;4.23;3.93;;;;;;;10.16;70.40;94645.00;4957540;28;20233;-67
2023/03/22 05:52:57;;;;;;;4.37;3.97;;;;;;;10.08;70.61;94648.41;4956690;28;20247;-67
2023/03/22 05:55:23;;;;;;;4.53;4.13;;;;;;;10.13;70.86;94651.38;4964785;28;20232;-65
2023/03/22 05:57:50;;;;;;;4.70;4.30;;;;;;;10.21;70.60;94650.59;4967557;28;20196;-64
2023/03/22 06:00:17;;;;;;;5.43;4.57;;;;;;;10.27;70.45;94654.41;4961359;28;20729;-65
2023/03/22 06:02:45;;;;;;;4.93;4.10;;;;;;;10.32;70.44;94658.22;4962000;28;20217;-64
2023/03/22 06:05:11;;;;;;;4.40;4.10;;;;;;;10.04;70.72;94656.75;4963452;28;20224;-65
2023/03/22 06:07:38;;;;;;;4.87;4.47;;;;;;;10.11;71.07;94658.59;4974479;28;20299;-65
2023/03/22 06:10:05;;;;;;;4.93;4.53;;;;;;;10.21;71.06;94661.13;4962075;28;20236;-65
2023/03/22 06:12:31;;;;;;;4.63;4.23;;;;;;;10.07;71.02;94664.31;4964214;28;20199;-64
2023/03/22 06:14:57;;;;;;;4.63;4.23;;;;;;;10.21;70.77;94663.75;4972482;28;20230;-64
2023/03/22 06:17:23;;;;;;;5.10;4.60;;;;;;;10.09;70.84;94671.06;4967639;28;20216;-65
2023/03/22 06:19:49;;;;;;;4.87;4.37;;;;;;;9.88;71.76;94662.75;4995399;28;20303;-66
2023/03/22 06:22:14;;;;;;;5.32;4.82;;;;;;;9.69;72.21;94666.41;4968036;28;20243;-64
2023/03/22 06:24:41;;;;;;;6.13;5.10;;;;;;;9.47;73.79;94662.50;4966932;28;20184;-65
2023/03/22 06:27:07;;;;;;;5.43;4.93;;;;;;;9.43;73.83;94664.59;4968961;28;20232;-65
2023/03/22 06:29:33;;;;;;;5.30;4.80;;;;;;;9.80;72.86;94670.59;4965930;28;20264;-65
2023/03/22 06:31:59;;;;;;;5.67;4.93;;;;;;;9.96;72.05;94669.84;4975572;28;20244;-65
2023/03/22 06:34:25;;;;;;;4.77;4.30;;;;;;;9.95;71.40;94669.03;4966724;28;20235;-64
2023/03/22 06:36:52;;;;;;;5.00;4.47;;;;;;;10.13;71.13;94677.66;4970757;28;20197;-65
2023/03/22 06:39:18;;;;;;;5.23;4.80;;;;;;;9.54;72.96;94670.56;4967886;28;20204;-63
2023/03/22 06:41:44;;;;;;;5.83;5.23;;;;;;;9.83;71.82;94671.09;4969827;28;20255;-63
2023/03/22 06:44:10;;;;;;;4.90;4.50;;;;;;;9.97;71.20;94674.97;4971423;28;20216;-63
2023/03/22 06:46:35;;;;;;;4.90;4.50;;;;;;;10.21;70.45;94682.13;4960970;28;20220;-63
2023/03/22 06:49:01;;;;;;;4.73;4.33;;;;;;;10.36;69.95;94672.69;4966180;28;20317;-63
2023/03/22 06:51:26;;;;;;;4.07;3.73;;;;;;;10.45;70.01;94678.81;4997603;28;20222;-67
2023/03/22 06:53:52;;;;;;;4.93;4.00;;;;;;;10.50;69.24;94684.38;4960325;28;20274;-66
2023/03/22 06:56:17;;;;;;;4.53;4.20;;;;;;;10.58;69.27;94692.31;4964445;28;20221;-66
2023/03/22 06:58:43;;;;;;;5.30;4.13;;;;;;;10.55;69.58;94682.09;4964827;28;20220;-66
2023/03/22 07:01:08;;;;;;;4.95;4.47;;;;;;;10.70;69.06;94692.84;4966751;28;20216;-67
2023/03/22 07:03:34;;;;;;;4.57;4.17;;;;;;;10.66;69.18;94693.31;4959637;28;20203;-70
2023/03/22 07:06:05;;;;;;;4.93;4.53;;;;;;;10.78;68.85;94700.75;4970890;28;20221;-67
2023/03/22 07:08:31;;;;;;;4.70;4.30;;;;;;;10.35;70.66;94697.31;4973997;28;20356;-69
2023/03/22 07:10:56;;;;;;;4.33;4.03;;;;;;;10.28;70.73;94704.19;4969398;28;20332;-68
2023/03/22 07:13:22;;;;;;;4.60;4.20;;;;;;;10.47;70.65;94704.91;4962715;28;20235;-67
2023/03/22 07:15:47;;;;;;;4.83;4.10;;;;;;;10.54;70.36;94701.50;4953278;28;20216;-64
2023/03/22 07:18:13;;;;;;;4.57;4.23;;;;;;;10.67;69.85;94714.19;4979507;28;20547;-65
2023/03/22 07:20:40;;;;;;;5.60;5.10;;;;;;;10.72;69.92;94706.66;4994007;28;20220;-65
2023/03/22 07:23:07;;;;;;;4.20;3.90;;;;;;;10.70;69.55;94715.69;4968972;28;20263;-65
2023/03/22 07:25:33;;;;;;;4.80;4.40;;;;;;;10.79;68.97;94717.34;4965692;28;20220;-65
2023/03/22 07:27:59;;;;;;;5.53;5.13;;;;;;;10.81;68.74;94723.28;4967261;28;20640;-65
2023/03/22 07:30:25;;;;;;;5.50;5.10;;;;;;;10.81;69.02;94725.91;4965214;28;20193;-65
2023/03/22 07:32:50;;;;;;;6.27;5.70;;;;;;;10.59;69.17;94719.44;4994216;28;20228;-65
2023/03/22 07:35:17;;;;;;;6.10;5.60;;;;;;;10.34;69.65;94715.88;4965385;28;20232;-65
2023/03/22 07:37:43;;;;;;;5.47;5.07;;;;;;;10.37;70.30;94721.66;4969277;28;20255;-67
2023/03/22 07:40:09;;;;;;;5.95;5.35;;;;;;;10.54;68.97;94725.16;4962570;28;20224;-65
2023/03/22 07:42:34;;;;;;;5.70;4.43;;;;;;;10.63;68.41;94730.44;4984545;28;20274;-66
2023/03/22 07:45:00;;;;;;;6.87;6.10;;;;;;;10.78;67.69;94726.22;4964665;28;20255;-66
2023/03/22 07:47:25;;;;;;;5.60;4.53;;;;;;;10.57;66.73;94729.28;4967350;28;20627;-66
2023/03/22 07:49:51;;;;;;;8.07;4.82;;;;;;;10.59;68.12;94738.66;4967038;28;20324;-65
2023/03/22 07:52:17;;;;;;;5.93;4.90;;;;;;;10.68;67.91;94743.94;4996604;28;20258;-68
2023/03/22 07:54:42;;;;;;;5.33;4.77;;;;;;;10.68;67.26;94739.50;4968354;28;20235;-68
2023/03/22 07:57:08;;;;;;;6.70;5.20;;;;;;;10.59;67.78;94741.28;4969989;28;20267;-73
2023/03/22 07:59:34;;;;;;;5.70;5.10;;;;;;;10.72;67.62;94740.00;4966013;28;20275;-70
2023/03/22 08:01:59;;;;;;;8.75;5.40;;;;;;;10.54;67.84;94740.13;4969710;28;20228;-70
2023/03/22 08:04:25;;;;;;;5.93;5.28;;;;;;;10.58;67.63;94741.44;4970168;28;20220;-71
2023/03/22 08:06:50;;;;;;;7.87;5.93;;;;;;;10.45;67.79;94741.03;4969047;28;20719;-73
2023/03/22 08:09:16;;;;;;;8.47;6.30;;;;;;;10.52;68.54;94740.25;4972977;28;20220;-71
2023/03/22 08:11:42;;;;;;;5.90;5.40;;;;;;;10.54;68.65;94740.13;4968585;28;20243;-71
2023/03/22 08:14:08;;;;;;;7.80;5.73;;;;;;;10.64;68.24;94738.19;5001802;28;20220;-70
2023/03/22 08:16:34;;;;;;;6.47;5.87;;;;;;;10.78;67.45;94734.94;4970755;28;20223;-66
2023/03/22 08:18:59;;;;;;;7.17;6.27;;;;;;;10.86;66.76;94730.69;5002391;28;20192;-66
2023/03/22 08:21:26;;;;;;;8.07;6.10;;;;;;;10.82;66.95;94735.44;4968556;28;20280;-67
2023/03/22 08:23:51;;;;;;;6.57;5.87;;;;;;;10.81;67.26;94736.44;4973344;28;20255;-67
2023/03/22 08:26:17;;;;;;;8.50;6.30;;;;;;;10.88;67.08;94737.44;4970025;28;20239;-66
2023/03/22 08:28:43;;;;;;;7.30;6.57;;;;;;;10.71;67.53;94738.38;4973251;28;20278;-67
2023/03/22 08:31:10;;;;;;;7.43;6.70;;;;;;;10.80;67.68;94745.31;4969520;28;20223;-69
2023/03/22 08:33:36;;;;;;;6.30;5.73;;;;;;;10.81;67.33;94745.13;4973261;28;20606;-70
2023/03/22 08:36:23;;;;;;;8.07;7.28;;;;;;;10.31;69.74;94739.84;4963102;28;20227;-71
2023/03/22 08:38:49;;;;;;;7.20;6.50;;;;;;;10.36;69.86;94742.81;4969590;28;20220;-66
2023/03/22 08:41:14;;;;;;;6.17;5.67;;;;;;;10.38;69.73;94746.13;4970477;28;20227;-67
2023/03/22 08:43:41;;;;;;;8.90;8.00;;;;;;;10.26;69.79;94739.44;4965653;28;20282;-67
2023/03/22 08:46:07;;;;;;;7.70;6.90;;;;;;;10.51;69.30;94751.78;4968076;28;20228;-67
2023/03/22 08:48:34;;;;;;;8.65;7.75;;;;;;;10.64;68.42;94740.81;4969635;28;20193;-67
2023/03/22 08:51:00;;;;;;;8.27;7.40;;;;;;;10.67;68.54;94752.81;4961744;28;20243;-66
2023/03/22 08:53:26;;;;;;;7.70;6.80;;;;;;;10.79;68.54;94749.72;4967480;28;20228;-67
2023/03/22 08:55:52;;;;;;;7.53;6.80;;;;;;;10.90;67.88;94753.03;4967657;28;20232;-65
2023/03/22 08:58:18;;;;;;;7.70;7.00;;;;;;;10.84;68.09;94759.78;4969607;28;20216;-65
2023/03/22 09:00:45;;;;;;;8.18;7.43;;;;;;;10.99;67.95;94758.19;4969415;28;20311;-65
2023/03/22 09:03:10;;;;;;;7.90;7.20;;;;;;;11.01;68.21;94755.38;4964134;28;20192;-65
2023/03/22 09:05:36;;;;;;;9.43;8.43;;;;;;;11.07;68.10;94757.38;4967749;28;20227;-63
2023/03/22 09:08:03;;;;;;;11.40;10.30;;;;;;;11.05;68.68;94756.72;4961831;28;20231;-61
2023/03/22 09:10:28;;;;;;;10.18;9.13;;;;;;;11.14;68.93;94765.44;4971798;28;20319;-60
2023/03/22 09:12:55;;;;;;;10.80;9.65;;;;;;;11.18;69.09;94764.16;5000639;28;20192;-61
2023/03/22 09:15:20;;;;;;;10.63;9.52;;;;;;;11.17;69.21;94767.75;4995379;28;20260;-63
2023/03/22 09:17:45;;;;;;;10.95;9.70;;;;;;;11.11;69.19;94760.50;4968678;28;20220;-63
2023/03/22 09:20:11;;;;;;;9.43;8.50;;;;;;;11.04;68.37;94757.72;4969621;28;20905;-64
2023/03/22 09:22:37;;;;;;;11.30;10.25;;;;;;;11.16;68.07;94763.47;4972271;28;20224;-65
2023/03/22 09:25:03;;;;;;;14.82;13.45;;;;;;;11.20;68.15;94759.53;4967700;28;20311;-67
2023/03/22 09:27:28;;;;;;;21.48;15.52;;;;;;;11.15;68.62;94761.84;4966102;28;20193;-71
2023/03/22 09:29:54;;;;;;;19.38;17.67;;;;;;;11.21;68.88;94759.38;4968550;28;20222;-66
2023/03/22 09:32:20;;;;;;;20.10;18.48;;;;;;;11.31;68.68;94768.94;4966732;28;20306;-65
2023/03/22 09:34:45;;;;;;;21.80;19.90;;;;;;;11.18;68.93;94772.03;4963610;28;20246;-70
2023/03/22 09:37:11;;;;;;;22.35;20.33;;;;;;;11.14;69.17;94768.88;4967957;28;20536;-68
2023/03/22 09:39:38;;;;;;;18.17;16.58;;;;;;;11.27;68.74;94763.16;4969121;28;20207;-69
2023/03/22 09:42:07;;;;;;;17.25;15.65;;;;;;;11.29;68.09;94766.47;4963586;28;20215;-67
2023/03/22 09:44:40;;;;;;;13.98;12.77;;;;;;;11.19;68.49;94763.16;4965424;28;20247;-65
2023/03/22 09:47:12;;;;;;;13.57;12.30;;;;;;;11.23;68.60;94769.75;4979609;28;20235;-66
2023/03/22 09:49:41;;;;;;;11.77;10.60;;;;;;;11.29;67.85;94758.56;4993696;28;20244;-64
2023/03/22 09:52:13;;;;;;;11.93;10.82;;;;;;;11.40;67.73;94765.31;4965851;28;20230;-66
2023/03/22 09:54:41;;;;;;;10.25;9.35;;;;;;;11.45;67.06;94761.22;4966598;28;20212;-69
2023/03/22 09:57:09;;;;;;;11.52;10.43;;;;;;;11.38;67.52;94768.09;4968265;28;20220;-67
2023/03/22 09:59:55;;;;;;;12.10;10.98;;;;;;;11.45;67.49;94768.28;4992912;28;20229;-66
2023/03/22 10:02:27;;;;;;;12.02;10.85;;;;;;;11.43;67.95;94770.25;4961856;28;20236;-66
2023/03/22 10:05:14;;;;;;;8.50;7.90;;;;;;;11.36;66.90;94766.63;4964048;28;20235;-63
2023/03/22 10:08:11;;;;;;;9.25;8.45;;;;;;;11.34;67.20;94774.69;4977164;28;20631;-63
2023/03/22 10:10:40;;;;;;;10.52;9.52;;;;;;;11.36;67.50;94769.25;4959286;28;20220;-66
2023/03/22 10:13:14;;;;;;;10.03;9.13;;;;;;;11.45;67.69;94782.28;4980834;28;20219;-64
2023/03/22 10:15:51;;;;;;;9.27;8.38;;;;;;;11.30;67.62;94783.91;4998184;28;20231;-65
2023/03/22 10:18:28;;;;;;;8.15;7.43;;;;;;;11.35;67.19;94786.88;4967128;28;20259;-65
2023/03/22 10:20:55;;;;;;;7.72;6.57;;;;;;;11.23;67.02;94782.91;4991590;28;20224;-63
2023/03/22 10:23:31;;;;;;;7.97;7.15;;;;;;;11.18;67.10;94783.38;4967878;28;20235;-67
2023/03/22 10:25:59;;;;;;;7.43;6.75;;;;;;;11.37;66.81;94786.72;4963172;28;20232;-69
2023/03/22 10:28:40;;;;;;;7.82;7.13;;;;;;;11.44;66.28;94782.44;4966076;28;20700;-71
2023/03/22 10:31:12;;;;;;;7.37;6.67;;;;;;;11.35;66.13;94781.59;4965522;28;20278;-67
2023/03/22 10:33:48;;;;;;;8.47;6.70;;;;;;;11.21;66.83;94783.06;4965266;28;20291;-65
2023/03/22 10:36:15;;;;;;;7.53;6.63;;;;;;;11.37;66.95;94777.00;4963948;28;20232;-69
2023/03/22 10:38:53;;;;;;;7.53;6.82;;;;;;;11.36;66.69;94771.88;4965456;28;20270;-68
2023/03/22 10:41:23;;;;;;;7.53;6.38;;;;;;;11.38;67.21;94781.28;4975978;28;20227;-67
2023/03/22 10:43:56;;;;;;;7.65;6.93;;;;;;;11.24;67.89;94779.28;4965906;28;20228;-68
2023/03/22 10:46:25;;;;;;;7.07;6.43;;;;;;;11.40;67.00;94775.84;4962412;28;20228;-68
2023/03/22 10:48:56;;;;;;;6.88;6.28;;;;;;;11.36;67.10;94769.25;4962713;28;20192;-67
2023/03/22 10:51:47;;;;;;;7.22;6.53;;;;;;;11.52;66.15;94778.97;4996529;28;20192;-69
2023/03/22 10:54:15;;;;;;;5.37;4.90;;;;;;;11.46;65.10;94768.13;4970828;28;20232;-67
2023/03/22 10:56:40;;;;;;;10.57;7.43;;;;;;;11.47;65.00;94779.50;4970946;28;20228;-67
2023/03/22 10:59:06;;;;;;;7.70;6.45;;;;;;;11.54;65.41;94769.13;4969837;28;20287;-64
2023/03/22 11:01:35;;;;;;;7.00;6.30;;;;;;;11.57;66.29;94772.25;4969250;28;20246;-67
2023/03/22 11:04:15;;;;;;;7.22;5.57;;;;;;;11.60;65.42;94763.19;4968702;28;20261;-67
2023/03/22 11:06:50;;;;;;;6.63;5.95;;;;;;;11.69;63.91;94770.13;4967176;28;20200;-67
2023/03/22 11:09:21;;;;;;;6.13;5.55;;;;;;;11.70;63.55;94751.50;5000041;28;20224;-67
2023/03/22 11:11:58;;;;;;;6.50;5.90;;;;;;;11.38;65.74;94757.59;4965209;28;20216;-67
2023/03/22 11:14:34;;;;;;;5.60;5.10;;;;;;;11.32;65.49;94765.31;4994994;28;20238;-67
2023/03/22 11:16:59;;;;;;;4.88;4.47;;;;;;;11.38;64.11;94773.38;4968866;28;20227;-67
2023/03/22 11:19:34;;;;;;;5.37;3.13;;;;;;;11.31;62.10;94766.31;4972228;28;20251;-66
2023/03/22 11:22:03;;;;;;;4.50;4.10;;;;;;;11.48;63.02;94765.34;4978990;28;20195;-67
2023/03/22 11:24:31;;;;;;;4.47;4.03;;;;;;;11.59;61.79;94769.44;4965883;28;20181;-65
2023/03/22 11:27:15;;;;;;;3.95;3.65;;;;;;;11.49;62.23;94761.69;4965866;28;20227;-65
2023/03/22 11:29:44;;;;;;;4.63;4.23;;;;;;;11.49;61.84;94759.06;4998722;28;20276;-66
2023/03/22 11:32:25;;;;;;;4.40;4.00;;;;;;;11.54;62.16;94764.66;4973572;28;20219;-62
2023/03/22 11:35:10;;;;;;;4.50;4.10;;;;;;;11.59;62.38;94765.00;4960450;28;20231;-69
2023/03/22 11:37:41;;;;;;;4.30;3.40;;;;;;;11.62;62.46;94764.66;4965119;28;20311;-63
2023/03/22 11:40:16;;;;;;;4.17;3.73;;;;;;;11.63;62.23;94750.53;4965295;28;20243;-63
2023/03/22 11:42:42;;;;;;;4.30;3.90;;;;;;;11.65;62.11;94750.34;4971156;28;20195;-64